sensor_id;sensor_type;location;lat;lon;timestamp;P1;durP1;ratioP1;P2;durP2;ratioP2
37087;SDS011;23002;52.676;6.432;2022-12-18T00:01:42;45.05;;;15.25;;
37087;SDS011;23002;52.676;6.432;2022-12-18T00:04:02;45.72;;;13.00;;
37087;SDS011;23002;52.676;6.432;2022-12-18T00:06:30;49.50;;;14.75;;
37087;SDS011;23002;52.676;6.432;2022-12-18T00:08:59;38.17;;;12.60;;
37087;SDS011;23002;52.676;6.432;2022-12-18T00:11:28;43.95;;;15.38;;
37087;SDS011;23002;52.676;6.432;2022-12-18T00:13:56;51.85;;;16.98;;
37087;SDS011;23002;52.676;6.432;2022-12-18T00:16:24;49.47;;;14.75;;
37087;SDS011;23002;52.676;6.432;2022-12-18T00:18:52;41.83;;;14.07;;
37087;SDS011;23002;52.676;6.432;2022-12-18T00:21:20;41.92;;;15.85;;
37087;SDS011;23002;52.676;6.432;2022-12-18T00:23:48;56.28;;;18.48;;
37087;SDS011;23002;52.676;6.432;2022-12-18T00:26:20;50.65;;;15.77;;
37087;SDS011;23002;52.676;6.432;2022-12-18T00:28:48;43.53;;;15.88;;
37087;SDS011;23002;52.676;6.432;2022-12-18T00:31:17;43.47;;;16.08;;
37087;SDS011;23002;52.676;6.432;2022-12-18T00:33:45;46.80;;;15.68;;
37087;SDS011;23002;52.676;6.432;2022-12-18T00:36:18;49.05;;;16.08;;
37087;SDS011;23002;52.676;6.432;2022-12-18T00:41:13;42.58;;;12.65;;
37087;SDS011;23002;52.676;6.432;2022-12-18T00:44:01;33.85;;;14.18;;
37087;SDS011;23002;52.676;6.432;2022-12-18T00:46:28;51.03;;;15.50;;
37087;SDS011;23002;52.676;6.432;2022-12-18T00:48:56;49.85;;;16.80;;
37087;SDS011;23002;52.676;6.432;2022-12-18T00:51:23;58.38;;;18.17;;
37087;SDS011;23002;52.676;6.432;2022-12-18T00:53:51;48.88;;;15.40;;
37087;SDS011;23002;52.676;6.432;2022-12-18T00:56:18;41.78;;;14.57;;
37087;SDS011;23002;52.676;6.432;2022-12-18T00:58:47;54.35;;;14.52;;
37087;SDS011;23002;52.676;6.432;2022-12-18T01:01:14;46.50;;;14.88;;
37087;SDS011;23002;52.676;6.432;2022-12-18T01:03:42;44.20;;;13.38;;
37087;SDS011;23002;52.676;6.432;2022-12-18T01:06:11;45.35;;;14.50;;
37087;SDS011;23002;52.676;6.432;2022-12-18T01:08:38;49.00;;;14.73;;
37087;SDS011;23002;52.676;6.432;2022-12-18T01:11:09;47.40;;;13.10;;
37087;SDS011;23002;52.676;6.432;2022-12-18T01:13:38;37.92;;;11.98;;
37087;SDS011;23002;52.676;6.432;2022-12-18T01:16:06;40.90;;;14.10;;
37087;SDS011;23002;52.676;6.432;2022-12-18T01:18:35;45.97;;;14.82;;
37087;SDS011;23002;52.676;6.432;2022-12-18T01:21:09;45.85;;;17.65;;
37087;SDS011;23002;52.676;6.432;2022-12-18T01:23:38;37.47;;;13.23;;
37087;SDS011;23002;52.676;6.432;2022-12-18T01:26:13;46.03;;;14.13;;
37087;SDS011;23002;52.676;6.432;2022-12-18T01:28:41;46.92;;;14.10;;
37087;SDS011;23002;52.676;6.432;2022-12-18T01:31:13;37.47;;;12.23;;
37087;SDS011;23002;52.676;6.432;2022-12-18T01:33:41;49.15;;;15.30;;
37087;SDS011;23002;52.676;6.432;2022-12-18T01:36:11;41.63;;;13.85;;
37087;SDS011;23002;52.676;6.432;2022-12-18T01:38:41;46.03;;;14.25;;
37087;SDS011;23002;52.676;6.432;2022-12-18T01:41:08;45.47;;;14.57;;
37087;SDS011;23002;52.676;6.432;2022-12-18T01:46:08;44.53;;;14.85;;
37087;SDS011;23002;52.676;6.432;2022-12-18T01:48:36;44.70;;;15.20;;
37087;SDS011;23002;52.676;6.432;2022-12-18T01:51:03;42.58;;;15.15;;
37087;SDS011;23002;52.676;6.432;2022-12-18T01:53:31;54.88;;;14.75;;
37087;SDS011;23002;52.676;6.432;2022-12-18T01:55:58;38.30;;;14.10;;
37087;SDS011;23002;52.676;6.432;2022-12-18T02:00:56;39.63;;;13.82;;
37087;SDS011;23002;52.676;6.432;2022-12-18T02:03:23;50.78;;;14.45;;
37087;SDS011;23002;52.676;6.432;2022-12-18T02:14:33;40.67;;;14.93;;
37087;SDS011;23002;52.676;6.432;2022-12-18T02:16:52;53.53;;;15.35;;
37087;SDS011;23002;52.676;6.432;2022-12-18T02:24:31;48.47;;;17.92;;
37087;SDS011;23002;52.676;6.432;2022-12-18T02:27:03;45.25;;;15.02;;
37087;SDS011;23002;52.676;6.432;2022-12-18T02:29:39;47.50;;;15.68;;
37087;SDS011;23002;52.676;6.432;2022-12-18T02:32:09;55.78;;;14.63;;
37087;SDS011;23002;52.676;6.432;2022-12-18T02:34:38;47.22;;;15.93;;
37087;SDS011;23002;52.676;6.432;2022-12-18T02:37:08;56.67;;;18.05;;
37087;SDS011;23002;52.676;6.432;2022-12-18T02:39:37;53.47;;;19.58;;
37087;SDS011;23002;52.676;6.432;2022-12-18T02:42:05;42.33;;;16.95;;
37087;SDS011;23002;52.676;6.432;2022-12-18T02:44:41;41.92;;;14.63;;
37087;SDS011;23002;52.676;6.432;2022-12-18T02:47:10;52.58;;;18.83;;
37087;SDS011;23002;52.676;6.432;2022-12-18T02:57:34;51.33;;;17.00;;
37087;SDS011;23002;52.676;6.432;2022-12-18T03:00:11;52.25;;;17.25;;
37087;SDS011;23002;52.676;6.432;2022-12-18T03:02:48;48.63;;;14.70;;
37087;SDS011;23002;52.676;6.432;2022-12-18T03:05:25;47.97;;;14.93;;
37087;SDS011;23002;52.676;6.432;2022-12-18T03:08:18;44.80;;;16.50;;
37087;SDS011;23002;52.676;6.432;2022-12-18T03:10:43;40.05;;;16.10;;
37087;SDS011;23002;52.676;6.432;2022-12-18T03:13:13;43.33;;;15.48;;
37087;SDS011;23002;52.676;6.432;2022-12-18T03:15:44;38.10;;;15.48;;
37087;SDS011;23002;52.676;6.432;2022-12-18T03:18:13;46.90;;;16.08;;
37087;SDS011;23002;52.676;6.432;2022-12-18T03:20:42;52.63;;;15.88;;
37087;SDS011;23002;52.676;6.432;2022-12-18T03:23:11;54.72;;;16.95;;
37087;SDS011;23002;52.676;6.432;2022-12-18T03:25:40;55.70;;;18.13;;
37087;SDS011;23002;52.676;6.432;2022-12-18T03:28:10;46.47;;;17.35;;
37087;SDS011;23002;52.676;6.432;2022-12-18T03:30:40;65.57;;;17.52;;
37087;SDS011;23002;52.676;6.432;2022-12-18T03:33:10;56.33;;;18.77;;
37087;SDS011;23002;52.676;6.432;2022-12-18T03:35:40;54.53;;;16.58;;
37087;SDS011;23002;52.676;6.432;2022-12-18T03:38:08;46.47;;;16.55;;
37087;SDS011;23002;52.676;6.432;2022-12-18T03:40:59;54.47;;;17.35;;
37087;SDS011;23002;52.676;6.432;2022-12-18T03:43:39;45.72;;;14.38;;
37087;SDS011;23002;52.676;6.432;2022-12-18T03:48:59;46.90;;;18.98;;
37087;SDS011;23002;52.676;6.432;2022-12-18T03:51:31;39.97;;;13.77;;
37087;SDS011;23002;52.676;6.432;2022-12-18T03:54:04;47.53;;;16.38;;
37087;SDS011;23002;52.676;6.432;2022-12-18T03:56:36;59.47;;;15.93;;
37087;SDS011;23002;52.676;6.432;2022-12-18T03:59:05;42.85;;;13.55;;
37087;SDS011;23002;52.676;6.432;2022-12-18T04:01:38;40.35;;;17.88;;
37087;SDS011;23002;52.676;6.432;2022-12-18T04:04:06;33.35;;;14.13;;
37087;SDS011;23002;52.676;6.432;2022-12-18T04:06:36;49.15;;;15.02;;
37087;SDS011;23002;52.676;6.432;2022-12-18T04:09:04;40.75;;;16.45;;
37087;SDS011;23002;52.676;6.432;2022-12-18T04:11:31;49.10;;;15.55;;
37087;SDS011;23002;52.676;6.432;2022-12-18T04:13:58;46.17;;;15.35;;
37087;SDS011;23002;52.676;6.432;2022-12-18T04:16:31;37.20;;;14.77;;
37087;SDS011;23002;52.676;6.432;2022-12-18T04:18:58;52.55;;;16.50;;
37087;SDS011;23002;52.676;6.432;2022-12-18T04:21:25;35.40;;;13.93;;
37087;SDS011;23002;52.676;6.432;2022-12-18T04:23:52;46.97;;;15.35;;
37087;SDS011;23002;52.676;6.432;2022-12-18T04:26:19;39.30;;;16.20;;
37087;SDS011;23002;52.676;6.432;2022-12-18T04:28:46;35.00;;;13.45;;
37087;SDS011;23002;52.676;6.432;2022-12-18T04:31:13;35.60;;;13.23;;
37087;SDS011;23002;52.676;6.432;2022-12-18T04:33:41;40.53;;;15.40;;
37087;SDS011;23002;52.676;6.432;2022-12-18T04:36:08;41.45;;;14.35;;
37087;SDS011;23002;52.676;6.432;2022-12-18T04:38:35;58.58;;;17.55;;
37087;SDS011;23002;52.676;6.432;2022-12-18T04:41:03;37.10;;;14.10;;
37087;SDS011;23002;52.676;6.432;2022-12-18T04:43:30;38.25;;;14.80;;
37087;SDS011;23002;52.676;6.432;2022-12-18T04:46:05;38.22;;;15.43;;
37087;SDS011;23002;52.676;6.432;2022-12-18T04:48:34;42.40;;;13.57;;
37087;SDS011;23002;52.676;6.432;2022-12-18T04:51:01;42.15;;;14.07;;
37087;SDS011;23002;52.676;6.432;2022-12-18T04:53:28;35.67;;;15.65;;
37087;SDS011;23002;52.676;6.432;2022-12-18T04:56:02;37.78;;;14.23;;
37087;SDS011;23002;52.676;6.432;2022-12-18T04:58:30;39.35;;;12.65;;
37087;SDS011;23002;52.676;6.432;2022-12-18T05:00:57;38.13;;;13.63;;
37087;SDS011;23002;52.676;6.432;2022-12-18T05:03:24;35.33;;;16.20;;
37087;SDS011;23002;52.676;6.432;2022-12-18T05:05:51;23.83;;;11.55;;
37087;SDS011;23002;52.676;6.432;2022-12-18T05:08:18;35.10;;;12.70;;
37087;SDS011;23002;52.676;6.432;2022-12-18T05:10:45;32.95;;;12.77;;
37087;SDS011;23002;52.676;6.432;2022-12-18T05:13:12;31.30;;;13.48;;
37087;SDS011;23002;52.676;6.432;2022-12-18T05:15:40;40.65;;;15.18;;
37087;SDS011;23002;52.676;6.432;2022-12-18T05:18:08;36.22;;;12.18;;
37087;SDS011;23002;52.676;6.432;2022-12-18T05:20:35;32.80;;;12.93;;
37087;SDS011;23002;52.676;6.432;2022-12-18T05:23:02;35.10;;;13.90;;
37087;SDS011;23002;52.676;6.432;2022-12-18T05:25:29;42.08;;;14.35;;
37087;SDS011;23002;52.676;6.432;2022-12-18T05:27:57;30.25;;;12.55;;
37087;SDS011;23002;52.676;6.432;2022-12-18T05:30:24;32.55;;;11.98;;
37087;SDS011;23002;52.676;6.432;2022-12-18T05:32:52;30.17;;;12.75;;
37087;SDS011;23002;52.676;6.432;2022-12-18T05:35:20;38.80;;;11.48;;
37087;SDS011;23002;52.676;6.432;2022-12-18T05:37:47;29.23;;;9.90;;
37087;SDS011;23002;52.676;6.432;2022-12-18T05:40:14;23.75;;;11.13;;
37087;SDS011;23002;52.676;6.432;2022-12-18T05:42:41;33.42;;;13.07;;
37087;SDS011;23002;52.676;6.432;2022-12-18T05:45:08;31.25;;;12.20;;
37087;SDS011;23002;52.676;6.432;2022-12-18T05:47:36;38.13;;;11.95;;
37087;SDS011;23002;52.676;6.432;2022-12-18T05:50:03;23.10;;;9.38;;
37087;SDS011;23002;52.676;6.432;2022-12-18T05:52:30;34.22;;;12.95;;
37087;SDS011;23002;52.676;6.432;2022-12-18T05:54:57;34.67;;;13.00;;
37087;SDS011;23002;52.676;6.432;2022-12-18T05:57:25;29.65;;;12.77;;
37087;SDS011;23002;52.676;6.432;2022-12-18T05:59:52;26.65;;;10.23;;
37087;SDS011;23002;52.676;6.432;2022-12-18T06:02:19;31.13;;;10.48;;
37087;SDS011;23002;52.676;6.432;2022-12-18T06:04:47;36.63;;;12.50;;
37087;SDS011;23002;52.676;6.432;2022-12-18T06:07:14;30.60;;;11.73;;
37087;SDS011;23002;52.676;6.432;2022-12-18T06:09:41;32.08;;;13.55;;
37087;SDS011;23002;52.676;6.432;2022-12-18T06:12:08;33.08;;;12.60;;
37087;SDS011;23002;52.676;6.432;2022-12-18T06:14:36;17.63;;;8.73;;
37087;SDS011;23002;52.676;6.432;2022-12-18T06:17:04;32.03;;;13.00;;
37087;SDS011;23002;52.676;6.432;2022-12-18T06:19:31;27.77;;;11.82;;
37087;SDS011;23002;52.676;6.432;2022-12-18T06:21:58;32.80;;;11.95;;
37087;SDS011;23002;52.676;6.432;2022-12-18T06:24:25;33.97;;;12.63;;
37087;SDS011;23002;52.676;6.432;2022-12-18T06:26:53;31.88;;;11.07;;
37087;SDS011;23002;52.676;6.432;2022-12-18T06:29:20;25.58;;;11.35;;
37087;SDS011;23002;52.676;6.432;2022-12-18T06:31:47;33.28;;;11.75;;
37087;SDS011;23002;52.676;6.432;2022-12-18T06:34:14;29.60;;;10.80;;
37087;SDS011;23002;52.676;6.432;2022-12-18T06:36:41;25.92;;;10.48;;
37087;SDS011;23002;52.676;6.432;2022-12-18T06:39:09;27.35;;;10.68;;
37087;SDS011;23002;52.676;6.432;2022-12-18T06:41:36;21.77;;;9.95;;
37087;SDS011;23002;52.676;6.432;2022-12-18T06:44:04;31.05;;;13.00;;
37087;SDS011;23002;52.676;6.432;2022-12-18T06:46:32;22.50;;;9.70;;
37087;SDS011;23002;52.676;6.432;2022-12-18T06:48:59;22.95;;;10.77;;
37087;SDS011;23002;52.676;6.432;2022-12-18T06:51:26;25.80;;;10.10;;
37087;SDS011;23002;52.676;6.432;2022-12-18T06:53:53;34.88;;;11.73;;
37087;SDS011;23002;52.676;6.432;2022-12-18T06:56:20;27.65;;;10.43;;
37087;SDS011;23002;52.676;6.432;2022-12-18T06:58:48;32.95;;;12.82;;
37087;SDS011;23002;52.676;6.432;2022-12-18T07:01:15;27.10;;;9.98;;
37087;SDS011;23002;52.676;6.432;2022-12-18T07:03:42;24.23;;;10.32;;
37087;SDS011;23002;52.676;6.432;2022-12-18T07:06:20;29.33;;;10.32;;
37087;SDS011;23002;52.676;6.432;2022-12-18T07:08:48;30.40;;;10.73;;
37087;SDS011;23002;52.676;6.432;2022-12-18T07:11:15;22.77;;;9.40;;
37087;SDS011;23002;52.676;6.432;2022-12-18T07:13:43;22.48;;;9.07;;
37087;SDS011;23002;52.676;6.432;2022-12-18T07:16:12;21.45;;;10.55;;
37087;SDS011;23002;52.676;6.432;2022-12-18T07:18:47;21.98;;;11.60;;
37087;SDS011;23002;52.676;6.432;2022-12-18T07:21:16;31.55;;;10.90;;
37087;SDS011;23002;52.676;6.432;2022-12-18T07:23:43;20.75;;;9.98;;
37087;SDS011;23002;52.676;6.432;2022-12-18T07:26:12;23.63;;;10.00;;
37087;SDS011;23002;52.676;6.432;2022-12-18T07:28:40;29.40;;;10.15;;
37087;SDS011;23002;52.676;6.432;2022-12-18T07:31:09;22.70;;;10.10;;
37087;SDS011;23002;52.676;6.432;2022-12-18T07:33:37;24.63;;;10.02;;
37087;SDS011;23002;52.676;6.432;2022-12-18T07:36:05;23.25;;;10.48;;
37087;SDS011;23002;52.676;6.432;2022-12-18T07:38:33;24.20;;;9.65;;
37087;SDS011;23002;52.676;6.432;2022-12-18T07:41:04;26.85;;;11.30;;
37087;SDS011;23002;52.676;6.432;2022-12-18T07:43:32;18.15;;;9.50;;
37087;SDS011;23002;52.676;6.432;2022-12-18T07:46:00;22.27;;;9.13;;
37087;SDS011;23002;52.676;6.432;2022-12-18T07:48:27;24.05;;;10.63;;
37087;SDS011;23002;52.676;6.432;2022-12-18T07:51:01;28.67;;;11.05;;
37087;SDS011;23002;52.676;6.432;2022-12-18T07:53:30;18.95;;;7.85;;
37087;SDS011;23002;52.676;6.432;2022-12-18T07:55:58;21.83;;;8.45;;
37087;SDS011;23002;52.676;6.432;2022-12-18T07:58:45;26.63;;;9.40;;
37087;SDS011;23002;52.676;6.432;2022-12-18T08:01:14;24.95;;;10.35;;
37087;SDS011;23002;52.676;6.432;2022-12-18T08:03:42;21.33;;;11.02;;
37087;SDS011;23002;52.676;6.432;2022-12-18T08:06:09;29.17;;;9.27;;
37087;SDS011;23002;52.676;6.432;2022-12-18T08:08:36;23.70;;;8.88;;
37087;SDS011;23002;52.676;6.432;2022-12-18T08:11:04;24.73;;;10.60;;
37087;SDS011;23002;52.676;6.432;2022-12-18T08:13:31;24.33;;;9.20;;
37087;SDS011;23002;52.676;6.432;2022-12-18T08:15:59;26.67;;;10.93;;
37087;SDS011;23002;52.676;6.432;2022-12-18T08:18:27;22.30;;;9.88;;
37087;SDS011;23002;52.676;6.432;2022-12-18T08:20:55;29.45;;;13.90;;
37087;SDS011;23002;52.676;6.432;2022-12-18T08:23:22;24.17;;;10.23;;
37087;SDS011;23002;52.676;6.432;2022-12-18T08:25:53;24.88;;;12.88;;
37087;SDS011;23002;52.676;6.432;2022-12-18T08:28:21;18.90;;;8.65;;
37087;SDS011;23002;52.676;6.432;2022-12-18T08:30:51;21.65;;;10.15;;
37087;SDS011;23002;52.676;6.432;2022-12-18T08:33:18;28.08;;;12.25;;
37087;SDS011;23002;52.676;6.432;2022-12-18T08:35:45;25.83;;;11.23;;
37087;SDS011;23002;52.676;6.432;2022-12-18T08:38:12;19.73;;;9.02;;
37087;SDS011;23002;52.676;6.432;2022-12-18T08:40:40;16.15;;;9.30;;
37087;SDS011;23002;52.676;6.432;2022-12-18T08:43:07;27.08;;;10.40;;
37087;SDS011;23002;52.676;6.432;2022-12-18T08:45:54;26.58;;;8.23;;
37087;SDS011;23002;52.676;6.432;2022-12-18T08:48:22;19.30;;;9.38;;
37087;SDS011;23002;52.676;6.432;2022-12-18T08:50:55;17.77;;;8.30;;
37087;SDS011;23002;52.676;6.432;2022-12-18T08:53:23;19.60;;;9.07;;
37087;SDS011;23002;52.676;6.432;2022-12-18T08:55:50;23.10;;;9.80;;
37087;SDS011;23002;52.676;6.432;2022-12-18T08:58:17;25.58;;;10.05;;
37087;SDS011;23002;52.676;6.432;2022-12-18T09:00:45;28.63;;;9.38;;
37087;SDS011;23002;52.676;6.432;2022-12-18T09:03:15;23.05;;;9.93;;
37087;SDS011;23002;52.676;6.432;2022-12-18T09:05:43;21.80;;;8.82;;
37087;SDS011;23002;52.676;6.432;2022-12-18T09:08:10;30.55;;;12.10;;
37087;SDS011;23002;52.676;6.432;2022-12-18T09:10:41;23.90;;;9.23;;
37087;SDS011;23002;52.676;6.432;2022-12-18T09:13:10;26.70;;;9.50;;
37087;SDS011;23002;52.676;6.432;2022-12-18T09:15:47;16.25;;;8.48;;
37087;SDS011;23002;52.676;6.432;2022-12-18T09:18:15;19.45;;;9.57;;
37087;SDS011;23002;52.676;6.432;2022-12-18T09:20:42;16.88;;;7.63;;
37087;SDS011;23002;52.676;6.432;2022-12-18T09:23:09;20.75;;;8.57;;
37087;SDS011;23002;52.676;6.432;2022-12-18T09:25:37;27.08;;;10.23;;
37087;SDS011;23002;52.676;6.432;2022-12-18T09:28:05;21.13;;;9.52;;
37087;SDS011;23002;52.676;6.432;2022-12-18T09:30:33;25.00;;;9.77;;
37087;SDS011;23002;52.676;6.432;2022-12-18T09:33:01;21.08;;;10.00;;
37087;SDS011;23002;52.676;6.432;2022-12-18T09:35:28;27.13;;;8.68;;
37087;SDS011;23002;52.676;6.432;2022-12-18T09:37:55;17.80;;;8.15;;
37087;SDS011;23002;52.676;6.432;2022-12-18T09:40:23;19.30;;;7.88;;
37087;SDS011;23002;52.676;6.432;2022-12-18T09:42:52;16.13;;;7.28;;
37087;SDS011;23002;52.676;6.432;2022-12-18T09:45:20;21.42;;;8.15;;
37087;SDS011;23002;52.676;6.432;2022-12-18T09:47:48;16.23;;;6.57;;
37087;SDS011;23002;52.676;6.432;2022-12-18T09:50:23;13.88;;;6.57;;
37087;SDS011;23002;52.676;6.432;2022-12-18T09:52:52;14.10;;;6.10;;
37087;SDS011;23002;52.676;6.432;2022-12-18T09:57:54;17.88;;;6.57;;
37087;SDS011;23002;52.676;6.432;2022-12-18T10:00:23;10.95;;;5.85;;
37087;SDS011;23002;52.676;6.432;2022-12-18T10:02:51;16.33;;;6.90;;
37087;SDS011;23002;52.676;6.432;2022-12-18T10:05:21;17.95;;;6.82;;
37087;SDS011;23002;52.676;6.432;2022-12-18T10:07:58;12.35;;;4.78;;
37087;SDS011;23002;52.676;6.432;2022-12-18T10:13:01;12.80;;;5.32;;
37087;SDS011;23002;52.676;6.432;2022-12-18T10:15:38;14.63;;;5.47;;
37087;SDS011;23002;52.676;6.432;2022-12-18T10:20:49;13.88;;;4.95;;
37087;SDS011;23002;52.676;6.432;2022-12-18T10:25:57;11.77;;;5.55;;
37087;SDS011;23002;52.676;6.432;2022-12-18T10:28:27;10.23;;;5.32;;
37087;SDS011;23002;52.676;6.432;2022-12-18T10:30:56;10.80;;;5.88;;
37087;SDS011;23002;52.676;6.432;2022-12-18T10:33:24;23.00;;;9.35;;
37087;SDS011;23002;52.676;6.432;2022-12-18T10:35:54;14.40;;;6.53;;
37087;SDS011;23002;52.676;6.432;2022-12-18T10:38:26;23.23;;;10.43;;
37087;SDS011;23002;52.676;6.432;2022-12-18T10:43:22;12.48;;;5.28;;
37087;SDS011;23002;52.676;6.432;2022-12-18T10:45:58;12.65;;;4.57;;
37087;SDS011;23002;52.676;6.432;2022-12-18T10:48:25;12.70;;;6.18;;
37087;SDS011;23002;52.676;6.432;2022-12-18T10:50:53;14.68;;;5.30;;
37087;SDS011;23002;52.676;6.432;2022-12-18T10:53:38;10.00;;;6.50;;
37087;SDS011;23002;52.676;6.432;2022-12-18T10:56:07;9.52;;;5.28;;
37087;SDS011;23002;52.676;6.432;2022-12-18T10:58:35;15.00;;;5.22;;
37087;SDS011;23002;52.676;6.432;2022-12-18T11:03:40;13.23;;;4.50;;
37087;SDS011;23002;52.676;6.432;2022-12-18T11:06:09;9.10;;;4.65;;
37087;SDS011;23002;52.676;6.432;2022-12-18T11:08:37;10.55;;;4.68;;
37087;SDS011;23002;52.676;6.432;2022-12-18T11:11:07;10.27;;;4.78;;
37087;SDS011;23002;52.676;6.432;2022-12-18T11:13:42;9.95;;;4.72;;
37087;SDS011;23002;52.676;6.432;2022-12-18T11:16:19;12.90;;;5.15;;
37087;SDS011;23002;52.676;6.432;2022-12-18T11:18:46;9.30;;;4.30;;
37087;SDS011;23002;52.676;6.432;2022-12-18T11:21:13;9.48;;;4.60;;
37087;SDS011;23002;52.676;6.432;2022-12-18T11:23:49;11.45;;;4.65;;
37087;SDS011;23002;52.676;6.432;2022-12-18T11:26:17;13.77;;;5.28;;
37087;SDS011;23002;52.676;6.432;2022-12-18T11:33:52;8.90;;;4.78;;
37087;SDS011;23002;52.676;6.432;2022-12-18T11:36:42;10.27;;;4.70;;
37087;SDS011;23002;52.676;6.432;2022-12-18T11:41:57;12.00;;;5.18;;
37087;SDS011;23002;52.676;6.432;2022-12-18T11:44:46;10.15;;;4.88;;
37087;SDS011;23002;52.676;6.432;2022-12-18T11:50:11;10.75;;;4.22;;
37087;SDS011;23002;52.676;6.432;2022-12-18T11:52:40;7.72;;;3.80;;
37087;SDS011;23002;52.676;6.432;2022-12-18T11:55:10;13.02;;;5.05;;
37087;SDS011;23002;52.676;6.432;2022-12-18T11:57:47;8.32;;;3.65;;
37087;SDS011;23002;52.676;6.432;2022-12-18T12:00:21;9.43;;;4.15;;
37087;SDS011;23002;52.676;6.432;2022-12-18T12:03:12;8.25;;;4.10;;
37087;SDS011;23002;52.676;6.432;2022-12-18T12:10:50;10.80;;;4.00;;
37087;SDS011;23002;52.676;6.432;2022-12-18T12:16:25;7.43;;;3.22;;
37087;SDS011;23002;52.676;6.432;2022-12-18T12:21:39;8.52;;;3.83;;
37087;SDS011;23002;52.676;6.432;2022-12-18T12:26:52;8.70;;;4.13;;
37087;SDS011;23002;52.676;6.432;2022-12-18T12:29:25;8.85;;;4.47;;
37087;SDS011;23002;52.676;6.432;2022-12-18T12:39:22;10.60;;;3.90;;
37087;SDS011;23002;52.676;6.432;2022-12-18T12:41:51;11.30;;;4.78;;
37087;SDS011;23002;52.676;6.432;2022-12-18T12:44:39;8.13;;;3.70;;
37087;SDS011;23002;52.676;6.432;2022-12-18T12:47:13;5.55;;;3.40;;
37087;SDS011;23002;52.676;6.432;2022-12-18T12:49:42;5.70;;;3.25;;
37087;SDS011;23002;52.676;6.432;2022-12-18T12:52:17;10.98;;;4.10;;
37087;SDS011;23002;52.676;6.432;2022-12-18T12:54:44;9.45;;;3.83;;
37087;SDS011;23002;52.676;6.432;2022-12-18T12:57:15;6.95;;;3.45;;
37087;SDS011;23002;52.676;6.432;2022-12-18T13:04:53;8.27;;;3.50;;
37087;SDS011;23002;52.676;6.432;2022-12-18T13:07:26;7.03;;;3.50;;
37087;SDS011;23002;52.676;6.432;2022-12-18T13:15:37;4.60;;;2.50;;
37087;SDS011;23002;52.676;6.432;2022-12-18T13:20:37;10.07;;;2.78;;
37087;SDS011;23002;52.676;6.432;2022-12-18T13:25:47;34.47;;;12.35;;
37087;SDS011;23002;52.676;6.432;2022-12-18T13:28:49;34.25;;;10.32;;
37087;SDS011;23002;52.676;6.432;2022-12-18T13:31:02;12.30;;;5.43;;
37087;SDS011;23002;52.676;6.432;2022-12-18T13:41:01;5.32;;;3.38;;
37087;SDS011;23002;52.676;6.432;2022-12-18T13:43:48;7.30;;;2.80;;
37087;SDS011;23002;52.676;6.432;2022-12-18T13:51:23;6.60;;;2.63;;
37087;SDS011;23002;52.676;6.432;2022-12-18T13:56:45;5.50;;;2.85;;
37087;SDS011;23002;52.676;6.432;2022-12-18T14:01:53;16.42;;;5.15;;
37087;SDS011;23002;52.676;6.432;2022-12-18T14:04:22;21.40;;;7.05;;
37087;SDS011;23002;52.676;6.432;2022-12-18T14:06:52;19.00;;;6.25;;
37087;SDS011;23002;52.676;6.432;2022-12-18T14:09:27;29.38;;;9.55;;
37087;SDS011;23002;52.676;6.432;2022-12-18T14:11:55;24.02;;;7.07;;
37087;SDS011;23002;52.676;6.432;2022-12-18T14:14:45;10.20;;;4.25;;
37087;SDS011;23002;52.676;6.432;2022-12-18T14:17:14;5.88;;;3.40;;
37087;SDS011;23002;52.676;6.432;2022-12-18T14:19:43;8.60;;;3.65;;
37087;SDS011;23002;52.676;6.432;2022-12-18T14:22:15;7.55;;;3.20;;
37087;SDS011;23002;52.676;6.432;2022-12-18T14:24:43;5.75;;;2.97;;
37087;SDS011;23002;52.676;6.432;2022-12-18T14:27:20;4.90;;;2.30;;
37087;SDS011;23002;52.676;6.432;2022-12-18T14:29:48;5.60;;;2.95;;
37087;SDS011;23002;52.676;6.432;2022-12-18T14:32:16;7.72;;;3.33;;
37087;SDS011;23002;52.676;6.432;2022-12-18T14:34:48;10.23;;;2.95;;
37087;SDS011;23002;52.676;6.432;2022-12-18T14:37:17;8.13;;;2.60;;
37087;SDS011;23002;52.676;6.432;2022-12-18T14:39:51;5.00;;;2.40;;
37087;SDS011;23002;52.676;6.432;2022-12-18T14:42:19;7.90;;;3.30;;
37087;SDS011;23002;52.676;6.432;2022-12-18T14:44:46;5.85;;;2.30;;
37087;SDS011;23002;52.676;6.432;2022-12-18T14:47:33;5.13;;;2.42;;
37087;SDS011;23002;52.676;6.432;2022-12-18T14:50:00;5.30;;;2.60;;
37087;SDS011;23002;52.676;6.432;2022-12-18T14:52:28;4.13;;;2.50;;
37087;SDS011;23002;52.676;6.432;2022-12-18T14:54:56;5.25;;;2.85;;
37087;SDS011;23002;52.676;6.432;2022-12-18T14:57:24;5.90;;;2.65;;
37087;SDS011;23002;52.676;6.432;2022-12-18T14:59:52;6.00;;;2.60;;
37087;SDS011;23002;52.676;6.432;2022-12-18T15:04:47;6.78;;;2.78;;
37087;SDS011;23002;52.676;6.432;2022-12-18T15:07:15;8.63;;;4.30;;
37087;SDS011;23002;52.676;6.432;2022-12-18T15:09:59;7.53;;;3.45;;
37087;SDS011;23002;52.676;6.432;2022-12-18T15:12:34;7.05;;;3.03;;
37087;SDS011;23002;52.676;6.432;2022-12-18T15:15:02;5.47;;;2.80;;
37087;SDS011;23002;52.676;6.432;2022-12-18T15:17:29;5.95;;;2.88;;
37087;SDS011;23002;52.676;6.432;2022-12-18T15:20:00;5.90;;;3.00;;
37087;SDS011;23002;52.676;6.432;2022-12-18T15:22:29;6.10;;;3.22;;
37087;SDS011;23002;52.676;6.432;2022-12-18T15:24:57;7.03;;;2.88;;
37087;SDS011;23002;52.676;6.432;2022-12-18T15:27:33;6.45;;;3.08;;
37087;SDS011;23002;52.676;6.432;2022-12-18T15:32:34;11.18;;;5.38;;
37087;SDS011;23002;52.676;6.432;2022-12-18T15:37:35;10.52;;;4.65;;
37087;SDS011;23002;52.676;6.432;2022-12-18T15:40:03;7.40;;;3.90;;
37087;SDS011;23002;52.676;6.432;2022-12-18T15:42:30;8.13;;;3.58;;
37087;SDS011;23002;52.676;6.432;2022-12-18T15:45:16;7.93;;;3.67;;
37087;SDS011;23002;52.676;6.432;2022-12-18T15:47:45;9.30;;;3.53;;
37087;SDS011;23002;52.676;6.432;2022-12-18T15:50:12;8.15;;;3.50;;
37087;SDS011;23002;52.676;6.432;2022-12-18T15:52:40;10.93;;;4.40;;
37087;SDS011;23002;52.676;6.432;2022-12-18T15:55:10;11.57;;;4.28;;
37087;SDS011;23002;52.676;6.432;2022-12-18T15:57:57;8.20;;;4.05;;
37087;SDS011;23002;52.676;6.432;2022-12-18T16:00:24;9.05;;;3.38;;
37087;SDS011;23002;52.676;6.432;2022-12-18T16:02:51;8.18;;;3.45;;
37087;SDS011;23002;52.676;6.432;2022-12-18T16:05:19;8.82;;;3.53;;
37087;SDS011;23002;52.676;6.432;2022-12-18T16:07:47;7.50;;;3.38;;
37087;SDS011;23002;52.676;6.432;2022-12-18T16:10:14;6.72;;;3.78;;
37087;SDS011;23002;52.676;6.432;2022-12-18T16:12:42;8.10;;;4.22;;
37087;SDS011;23002;52.676;6.432;2022-12-18T16:15:10;9.95;;;4.75;;
37087;SDS011;23002;52.676;6.432;2022-12-18T16:17:39;8.57;;;3.85;;
37087;SDS011;23002;52.676;6.432;2022-12-18T16:20:14;9.90;;;4.88;;
37087;SDS011;23002;52.676;6.432;2022-12-18T16:22:41;10.77;;;5.40;;
37087;SDS011;23002;52.676;6.432;2022-12-18T16:25:30;11.95;;;5.25;;
37087;SDS011;23002;52.676;6.432;2022-12-18T16:27:57;32.50;;;11.00;;
37087;SDS011;23002;52.676;6.432;2022-12-18T16:30:26;14.38;;;5.35;;
37087;SDS011;23002;52.676;6.432;2022-12-18T16:32:58;19.42;;;8.20;;
37087;SDS011;23002;52.676;6.432;2022-12-18T16:35:25;7.85;;;4.40;;
37087;SDS011;23002;52.676;6.432;2022-12-18T16:37:53;10.20;;;4.63;;
37087;SDS011;23002;52.676;6.432;2022-12-18T16:40:20;8.90;;;4.25;;
37087;SDS011;23002;52.676;6.432;2022-12-18T16:42:47;11.98;;;4.57;;
37087;SDS011;23002;52.676;6.432;2022-12-18T16:45:15;8.77;;;4.60;;
37087;SDS011;23002;52.676;6.432;2022-12-18T16:47:43;9.07;;;4.88;;